sensor_id;sensor_type;location;lat;lon;timestamp;P1;durP1;ratioP1;P2;durP2;ratioP2
65706;SDS011;52423;43.512;5.220;2023-02-26T00:01:25;7.68;;;3.53;;
65706;SDS011;52423;43.512;5.220;2023-02-26T00:04:01;9.10;;;3.95;;
65706;SDS011;52423;43.512;5.220;2023-02-26T00:06:30;4.93;;;3.38;;
65706;SDS011;52423;43.512;5.220;2023-02-26T00:08:57;7.70;;;3.67;;
65706;SDS011;52423;43.512;5.220;2023-02-26T00:11:23;5.13;;;3.60;;
65706;SDS011;52423;43.512;5.220;2023-02-26T00:13:48;5.97;;;3.50;;
65706;SDS011;52423;43.512;5.220;2023-02-26T00:16:21;6.60;;;3.30;;
65706;SDS011;52423;43.512;5.220;2023-02-26T00:18:57;5.93;;;3.37;;
65706;SDS011;52423;43.512;5.220;2023-02-26T00:21:25;4.38;;;3.60;;
65706;SDS011;52423;43.512;5.220;2023-02-26T00:23:52;6.35;;;3.33;;
65706;SDS011;52423;43.512;5.220;2023-02-26T00:26:17;5.45;;;3.03;;
65706;SDS011;52423;43.512;5.220;2023-02-26T00:28:43;6.40;;;3.20;;
65706;SDS011;52423;43.512;5.220;2023-02-26T00:31:22;7.50;;;2.67;;
65706;SDS011;52423;43.512;5.220;2023-02-26T00:33:57;7.70;;;3.10;;
65706;SDS011;52423;43.512;5.220;2023-02-26T00:36:35;4.93;;;2.70;;
65706;SDS011;52423;43.512;5.220;2023-02-26T00:42:05;3.60;;;2.60;;
65706;SDS011;52423;43.512;5.220;2023-02-26T00:44:31;10.45;;;2.65;;
65706;SDS011;52423;43.512;5.220;2023-02-26T00:47:03;4.70;;;2.92;;
65706;SDS011;52423;43.512;5.220;2023-02-26T00:50:00;7.72;;;2.90;;
65706;SDS011;52423;43.512;5.220;2023-02-26T00:52:52;4.35;;;2.40;;
65706;SDS011;52423;43.512;5.220;2023-02-26T00:55:27;4.72;;;2.55;;
65706;SDS011;52423;43.512;5.220;2023-02-26T00:57:52;4.78;;;2.55;;
65706;SDS011;52423;43.512;5.220;2023-02-26T01:00:18;2.55;;;2.15;;
65706;SDS011;52423;43.512;5.220;2023-02-26T01:02:53;4.60;;;2.60;;
65706;SDS011;52423;43.512;5.220;2023-02-26T01:05:19;5.63;;;2.25;;
65706;SDS011;52423;43.512;5.220;2023-02-26T01:10:35;5.68;;;2.80;;
65706;SDS011;52423;43.512;5.220;2023-02-26T01:13:10;7.93;;;2.60;;
65706;SDS011;52423;43.512;5.220;2023-02-26T01:15:36;5.15;;;2.60;;
65706;SDS011;52423;43.512;5.220;2023-02-26T01:20:56;5.47;;;2.75;;
65706;SDS011;52423;43.512;5.220;2023-02-26T01:23:28;7.55;;;2.42;;
65706;SDS011;52423;43.512;5.220;2023-02-26T01:26:29;4.05;;;2.38;;
65706;SDS011;52423;43.512;5.220;2023-02-26T01:28:52;4.30;;;2.42;;
65706;SDS011;52423;43.512;5.220;2023-02-26T01:31:23;4.10;;;2.63;;
65706;SDS011;52423;43.512;5.220;2023-02-26T01:34:13;5.53;;;2.33;;
65706;SDS011;52423;43.512;5.220;2023-02-26T01:36:43;3.08;;;2.33;;
65706;SDS011;52423;43.512;5.220;2023-02-26T01:39:21;4.72;;;2.38;;
65706;SDS011;52423;43.512;5.220;2023-02-26T01:41:54;5.85;;;2.60;;
65706;SDS011;52423;43.512;5.220;2023-02-26T01:47:03;6.38;;;2.58;;
65706;SDS011;52423;43.512;5.220;2023-02-26T01:49:29;4.78;;;2.15;;
65706;SDS011;52423;43.512;5.220;2023-02-26T01:52:05;5.75;;;2.63;;
65706;SDS011;52423;43.512;5.220;2023-02-26T01:54:51;5.38;;;2.20;;
65706;SDS011;52423;43.512;5.220;2023-02-26T01:57:17;3.15;;;2.22;;
65706;SDS011;52423;43.512;5.220;2023-02-26T01:59:46;5.68;;;2.35;;
65706;SDS011;52423;43.512;5.220;2023-02-26T02:02:21;7.18;;;2.60;;
65706;SDS011;52423;43.512;5.220;2023-02-26T02:04:49;4.93;;;2.70;;
65706;SDS011;52423;43.512;5.220;2023-02-26T02:07:15;4.70;;;2.63;;
65706;SDS011;52423;43.512;5.220;2023-02-26T02:09:50;4.40;;;1.95;;
65706;SDS011;52423;43.512;5.220;2023-02-26T02:12:27;5.10;;;2.97;;
65706;SDS011;52423;43.512;5.220;2023-02-26T02:23:39;4.95;;;2.40;;
65706;SDS011;52423;43.512;5.220;2023-02-26T02:26:39;3.63;;;1.83;;
65706;SDS011;52423;43.512;5.220;2023-02-26T02:37:11;2.85;;;2.20;;
65706;SDS011;52423;43.512;5.220;2023-02-26T02:39:48;4.30;;;2.53;;
65706;SDS011;52423;43.512;5.220;2023-02-26T02:42:27;6.43;;;2.75;;
65706;SDS011;52423;43.512;5.220;2023-02-26T02:45:02;4.20;;;2.40;;
65706;SDS011;52423;43.512;5.220;2023-02-26T02:47:33;5.78;;;2.85;;
65706;SDS011;52423;43.512;5.220;2023-02-26T02:50:04;4.72;;;2.90;;
65706;SDS011;52423;43.512;5.220;2023-02-26T02:52:55;3.80;;;2.50;;
65706;SDS011;52423;43.512;5.220;2023-02-26T02:55:47;4.18;;;2.42;;
65706;SDS011;52423;43.512;5.220;2023-02-26T02:58:16;14.90;;;2.50;;
65706;SDS011;52423;43.512;5.220;2023-02-26T03:00:46;6.85;;;2.92;;
65706;SDS011;52423;43.512;5.220;2023-02-26T03:03:18;3.33;;;2.35;;
65706;SDS011;52423;43.512;5.220;2023-02-26T03:05:50;3.03;;;1.92;;
65706;SDS011;52423;43.512;5.220;2023-02-26T03:08:16;4.95;;;2.50;;
65706;SDS011;52423;43.512;5.220;2023-02-26T03:10:54;5.00;;;2.17;;
65706;SDS011;52423;43.512;5.220;2023-02-26T03:13:21;3.72;;;2.30;;
65706;SDS011;52423;43.512;5.220;2023-02-26T03:18:59;2.05;;;1.85;;
65706;SDS011;52423;43.512;5.220;2023-02-26T03:21:48;7.10;;;2.80;;
65706;SDS011;52423;43.512;5.220;2023-02-26T03:24:27;4.28;;;2.50;;
65706;SDS011;52423;43.512;5.220;2023-02-26T03:27:01;3.85;;;2.42;;
65706;SDS011;52423;43.512;5.220;2023-02-26T03:29:46;5.13;;;2.25;;
65706;SDS011;52423;43.512;5.220;2023-02-26T03:32:15;5.03;;;2.92;;
65706;SDS011;52423;43.512;5.220;2023-02-26T03:35:13;5.13;;;2.83;;
65706;SDS011;52423;43.512;5.220;2023-02-26T03:37:44;4.95;;;2.72;;
65706;SDS011;52423;43.512;5.220;2023-02-26T03:40:17;6.88;;;2.47;;
65706;SDS011;52423;43.512;5.220;2023-02-26T03:46:13;4.43;;;2.65;;
65706;SDS011;52423;43.512;5.220;2023-02-26T03:48:51;4.03;;;2.42;;
65706;SDS011;52423;43.512;5.220;2023-02-26T03:51:18;5.00;;;2.35;;
65706;SDS011;52423;43.512;5.220;2023-02-26T03:53:49;7.68;;;2.78;;
65706;SDS011;52423;43.512;5.220;2023-02-26T03:59:05;2.63;;;2.08;;
65706;SDS011;52423;43.512;5.220;2023-02-26T04:01:33;3.20;;;2.30;;
65706;SDS011;52423;43.512;5.220;2023-02-26T04:04:06;9.45;;;2.67;;
65706;SDS011;52423;43.512;5.220;2023-02-26T04:06:40;6.72;;;2.40;;
65706;SDS011;52423;43.512;5.220;2023-02-26T04:09:15;5.40;;;2.47;;
65706;SDS011;52423;43.512;5.220;2023-02-26T04:11:40;7.10;;;2.80;;
65706;SDS011;52423;43.512;5.220;2023-02-26T04:14:07;5.05;;;2.70;;
65706;SDS011;52423;43.512;5.220;2023-02-26T04:16:33;5.40;;;2.63;;
65706;SDS011;52423;43.512;5.220;2023-02-26T04:18:58;4.50;;;2.60;;
65706;SDS011;52423;43.512;5.220;2023-02-26T04:21:23;7.13;;;2.42;;
65706;SDS011;52423;43.512;5.220;2023-02-26T04:23:49;6.65;;;2.65;;
65706;SDS011;52423;43.512;5.220;2023-02-26T04:26:14;3.67;;;2.53;;
65706;SDS011;52423;43.512;5.220;2023-02-26T04:28:49;4.40;;;2.33;;
65706;SDS011;52423;43.512;5.220;2023-02-26T04:31:14;6.35;;;2.70;;
65706;SDS011;52423;43.512;5.220;2023-02-26T04:33:40;4.90;;;2.88;;
65706;SDS011;52423;43.512;5.220;2023-02-26T04:36:05;8.02;;;2.78;;
65706;SDS011;52423;43.512;5.220;2023-02-26T04:38:40;3.67;;;2.03;;
65706;SDS011;52423;43.512;5.220;2023-02-26T04:41:05;7.40;;;2.95;;
65706;SDS011;52423;43.512;5.220;2023-02-26T04:43:31;5.05;;;2.53;;
65706;SDS011;52423;43.512;5.220;2023-02-26T04:45:56;4.45;;;2.53;;
65706;SDS011;52423;43.512;5.220;2023-02-26T04:48:22;4.70;;;2.50;;
65706;SDS011;52423;43.512;5.220;2023-02-26T04:50:50;3.17;;;2.40;;
65706;SDS011;52423;43.512;5.220;2023-02-26T04:53:15;5.07;;;2.40;;
65706;SDS011;52423;43.512;5.220;2023-02-26T04:55:47;4.15;;;2.67;;
65706;SDS011;52423;43.512;5.220;2023-02-26T04:58:13;4.20;;;2.53;;
65706;SDS011;52423;43.512;5.220;2023-02-26T05:00:38;4.38;;;2.83;;
65706;SDS011;52423;43.512;5.220;2023-02-26T05:03:04;3.03;;;2.40;;
65706;SDS011;52423;43.512;5.220;2023-02-26T05:05:39;9.80;;;2.70;;
65706;SDS011;52423;43.512;5.220;2023-02-26T05:08:08;5.47;;;2.70;;
65706;SDS011;52423;43.512;5.220;2023-02-26T05:10:33;2.70;;;2.50;;
65706;SDS011;52423;43.512;5.220;2023-02-26T05:12:59;3.45;;;2.67;;
65706;SDS011;52423;43.512;5.220;2023-02-26T05:15:24;5.35;;;2.58;;
65706;SDS011;52423;43.512;5.220;2023-02-26T05:18:02;4.43;;;2.55;;
65706;SDS011;52423;43.512;5.220;2023-02-26T05:20:27;4.45;;;2.28;;
65706;SDS011;52423;43.512;5.220;2023-02-26T05:22:52;7.68;;;3.20;;
65706;SDS011;52423;43.512;5.220;2023-02-26T05:25:18;4.57;;;2.47;;
65706;SDS011;52423;43.512;5.220;2023-02-26T05:27:44;3.67;;;2.67;;
65706;SDS011;52423;43.512;5.220;2023-02-26T05:30:10;3.95;;;2.83;;
65706;SDS011;52423;43.512;5.220;2023-02-26T05:32:38;7.00;;;2.78;;
65706;SDS011;52423;43.512;5.220;2023-02-26T05:35:03;3.38;;;2.72;;
65706;SDS011;52423;43.512;5.220;2023-02-26T05:37:29;3.42;;;2.47;;
65706;SDS011;52423;43.512;5.220;2023-02-26T05:40:05;4.47;;;2.67;;
65706;SDS011;52423;43.512;5.220;2023-02-26T05:42:35;3.65;;;2.25;;
65706;SDS011;52423;43.512;5.220;2023-02-26T05:45:01;4.32;;;2.60;;
65706;SDS011;52423;43.512;5.220;2023-02-26T05:47:28;4.43;;;2.45;;
65706;SDS011;52423;43.512;5.220;2023-02-26T05:49:54;7.40;;;2.78;;
65706;SDS011;52423;43.512;5.220;2023-02-26T05:52:19;5.70;;;2.50;;
65706;SDS011;52423;43.512;5.220;2023-02-26T05:54:54;5.22;;;2.75;;
65706;SDS011;52423;43.512;5.220;2023-02-26T05:57:20;4.32;;;2.75;;
65706;SDS011;52423;43.512;5.220;2023-02-26T05:59:45;8.63;;;3.70;;
65706;SDS011;52423;43.512;5.220;2023-02-26T06:02:11;3.08;;;2.40;;
65706;SDS011;52423;43.512;5.220;2023-02-26T06:04:36;4.22;;;2.47;;
65706;SDS011;52423;43.512;5.220;2023-02-26T06:07:10;4.85;;;3.03;;
65706;SDS011;52423;43.512;5.220;2023-02-26T06:09:37;5.75;;;2.45;;
65706;SDS011;52423;43.512;5.220;2023-02-26T06:12:03;8.93;;;2.85;;
65706;SDS011;52423;43.512;5.220;2023-02-26T06:14:29;8.25;;;2.70;;
65706;SDS011;52423;43.512;5.220;2023-02-26T06:16:54;5.03;;;2.72;;
65706;SDS011;52423;43.512;5.220;2023-02-26T06:19:29;5.22;;;2.67;;
65706;SDS011;52423;43.512;5.220;2023-02-26T06:21:54;5.20;;;2.80;;
65706;SDS011;52423;43.512;5.220;2023-02-26T06:24:20;6.53;;;2.92;;
65706;SDS011;52423;43.512;5.220;2023-02-26T06:26:45;2.92;;;2.10;;
65706;SDS011;52423;43.512;5.220;2023-02-26T06:29:11;2.90;;;2.30;;
65706;SDS011;52423;43.512;5.220;2023-02-26T06:31:43;4.78;;;2.70;;
65706;SDS011;52423;43.512;5.220;2023-02-26T06:34:08;10.20;;;3.10;;
65706;SDS011;52423;43.512;5.220;2023-02-26T06:36:34;3.88;;;2.80;;
65706;SDS011;52423;43.512;5.220;2023-02-26T06:38:59;6.15;;;2.80;;
65706;SDS011;52423;43.512;5.220;2023-02-26T06:41:25;5.40;;;2.75;;
65706;SDS011;52423;43.512;5.220;2023-02-26T06:43:50;5.85;;;2.88;;
65706;SDS011;52423;43.512;5.220;2023-02-26T06:46:15;5.45;;;2.65;;
65706;SDS011;52423;43.512;5.220;2023-02-26T06:48:41;7.47;;;2.55;;
65706;SDS011;52423;43.512;5.220;2023-02-26T06:51:15;6.60;;;2.80;;
65706;SDS011;52423;43.512;5.220;2023-02-26T06:53:41;7.20;;;3.00;;
65706;SDS011;52423;43.512;5.220;2023-02-26T06:56:06;5.00;;;3.08;;
65706;SDS011;52423;43.512;5.220;2023-02-26T06:58:32;6.45;;;3.20;;
65706;SDS011;52423;43.512;5.220;2023-02-26T07:00:57;8.25;;;3.00;;
65706;SDS011;52423;43.512;5.220;2023-02-26T07:03:23;7.55;;;3.58;;
65706;SDS011;52423;43.512;5.220;2023-02-26T07:05:48;5.68;;;2.70;;
65706;SDS011;52423;43.512;5.220;2023-02-26T07:08:13;6.03;;;3.03;;
65706;SDS011;52423;43.512;5.220;2023-02-26T07:10:39;4.40;;;2.65;;
65706;SDS011;52423;43.512;5.220;2023-02-26T07:13:06;3.47;;;2.50;;
65706;SDS011;52423;43.512;5.220;2023-02-26T07:15:31;4.60;;;2.72;;
65706;SDS011;52423;43.512;5.220;2023-02-26T07:17:57;5.45;;;2.67;;
65706;SDS011;52423;43.512;5.220;2023-02-26T07:20:24;10.07;;;2.90;;
65706;SDS011;52423;43.512;5.220;2023-02-26T07:22:56;4.70;;;2.85;;
65706;SDS011;52423;43.512;5.220;2023-02-26T07:25:22;4.47;;;2.75;;
65706;SDS011;52423;43.512;5.220;2023-02-26T07:27:48;5.63;;;3.10;;
65706;SDS011;52423;43.512;5.220;2023-02-26T07:30:14;7.95;;;3.15;;
65706;SDS011;52423;43.512;5.220;2023-02-26T07:32:42;5.13;;;2.85;;
65706;SDS011;52423;43.512;5.220;2023-02-26T07:35:17;5.72;;;3.80;;
65706;SDS011;52423;43.512;5.220;2023-02-26T07:37:42;6.22;;;3.42;;
65706;SDS011;52423;43.512;5.220;2023-02-26T07:40:08;4.68;;;2.88;;
65706;SDS011;52423;43.512;5.220;2023-02-26T07:42:34;13.18;;;3.25;;
65706;SDS011;52423;43.512;5.220;2023-02-26T07:45:00;9.45;;;3.05;;
65706;SDS011;52423;43.512;5.220;2023-02-26T07:47:35;6.65;;;3.33;;
65706;SDS011;52423;43.512;5.220;2023-02-26T07:50:01;5.03;;;3.22;;
65706;SDS011;52423;43.512;5.220;2023-02-26T07:52:27;8.68;;;3.97;;
65706;SDS011;52423;43.512;5.220;2023-02-26T07:54:53;6.95;;;3.58;;
65706;SDS011;52423;43.512;5.220;2023-02-26T07:57:18;4.95;;;3.30;;
65706;SDS011;52423;43.512;5.220;2023-02-26T07:59:53;5.45;;;3.17;;
65706;SDS011;52423;43.512;5.220;2023-02-26T08:02:18;5.43;;;3.22;;
65706;SDS011;52423;43.512;5.220;2023-02-26T08:04:43;9.77;;;3.38;;
65706;SDS011;52423;43.512;5.220;2023-02-26T08:07:09;7.00;;;4.82;;
65706;SDS011;52423;43.512;5.220;2023-02-26T08:09:34;6.25;;;3.28;;
65706;SDS011;52423;43.512;5.220;2023-02-26T08:12:12;5.97;;;3.67;;
65706;SDS011;52423;43.512;5.220;2023-02-26T08:14:37;8.23;;;3.47;;
65706;SDS011;52423;43.512;5.220;2023-02-26T08:17:05;9.15;;;3.00;;
65706;SDS011;52423;43.512;5.220;2023-02-26T08:19:31;5.20;;;2.72;;
65706;SDS011;52423;43.512;5.220;2023-02-26T08:22:02;5.82;;;4.07;;
65706;SDS011;52423;43.512;5.220;2023-02-26T08:24:28;5.10;;;2.95;;
65706;SDS011;52423;43.512;5.220;2023-02-26T08:26:53;5.03;;;2.90;;
65706;SDS011;52423;43.512;5.220;2023-02-26T08:29:19;5.85;;;3.60;;
65706;SDS011;52423;43.512;5.220;2023-02-26T08:31:44;7.13;;;3.55;;
65706;SDS011;52423;43.512;5.220;2023-02-26T08:34:10;5.65;;;3.38;;
65706;SDS011;52423;43.512;5.220;2023-02-26T08:36:45;4.38;;;3.08;;
65706;SDS011;52423;43.512;5.220;2023-02-26T08:39:10;8.68;;;2.95;;
65706;SDS011;52423;43.512;5.220;2023-02-26T08:41:36;6.78;;;3.13;;
65706;SDS011;52423;43.512;5.220;2023-02-26T08:44:03;4.75;;;2.90;;
65706;SDS011;52423;43.512;5.220;2023-02-26T08:46:28;5.00;;;3.13;;
65706;SDS011;52423;43.512;5.220;2023-02-26T08:49:03;4.03;;;3.03;;
65706;SDS011;52423;43.512;5.220;2023-02-26T08:51:28;6.82;;;3.33;;
65706;SDS011;52423;43.512;5.220;2023-02-26T08:53:54;5.75;;;3.40;;
65706;SDS011;52423;43.512;5.220;2023-02-26T08:56:20;3.40;;;2.72;;
65706;SDS011;52423;43.512;5.220;2023-02-26T08:58:46;4.18;;;2.72;;
65706;SDS011;52423;43.512;5.220;2023-02-26T09:01:11;4.97;;;3.05;;
65706;SDS011;52423;43.512;5.220;2023-02-26T09:03:45;8.70;;;2.67;;
65706;SDS011;52423;43.512;5.220;2023-02-26T09:06:11;3.92;;;2.90;;
65706;SDS011;52423;43.512;5.220;2023-02-26T09:08:36;5.68;;;3.10;;
65706;SDS011;52423;43.512;5.220;2023-02-26T09:11:02;9.93;;;3.40;;
65706;SDS011;52423;43.512;5.220;2023-02-26T09:13:28;5.00;;;3.17;;
65706;SDS011;52423;43.512;5.220;2023-02-26T09:16:03;6.03;;;2.83;;
65706;SDS011;52423;43.512;5.220;2023-02-26T09:18:29;3.80;;;2.83;;
65706;SDS011;52423;43.512;5.220;2023-02-26T09:20:54;6.88;;;2.70;;
65706;SDS011;52423;43.512;5.220;2023-02-26T09:23:19;4.13;;;3.00;;
65706;SDS011;52423;43.512;5.220;2023-02-26T09:25:54;3.60;;;2.65;;
65706;SDS011;52423;43.512;5.220;2023-02-26T09:28:26;8.50;;;3.10;;
65706;SDS011;52423;43.512;5.220;2023-02-26T09:30:52;4.38;;;2.70;;
65706;SDS011;52423;43.512;5.220;2023-02-26T09:33:18;7.50;;;2.90;;
65706;SDS011;52423;43.512;5.220;2023-02-26T09:35:53;3.60;;;2.55;;
65706;SDS011;52423;43.512;5.220;2023-02-26T09:38:18;4.70;;;3.58;;
65706;SDS011;52423;43.512;5.220;2023-02-26T09:40:55;6.25;;;2.70;;
65706;SDS011;52423;43.512;5.220;2023-02-26T09:46:27;7.65;;;2.45;;
65706;SDS011;52423;43.512;5.220;2023-02-26T09:51:58;3.78;;;2.30;;
65706;SDS011;52423;43.512;5.220;2023-02-26T09:54:40;2.95;;;2.40;;
65706;SDS011;52423;43.512;5.220;2023-02-26T09:57:29;5.13;;;2.45;;
65706;SDS011;52423;43.512;5.220;2023-02-26T10:00:21;8.27;;;2.78;;
65706;SDS011;52423;43.512;5.220;2023-02-26T10:05:45;10.20;;;2.55;;
65706;SDS011;52423;43.512;5.220;2023-02-26T10:08:14;6.47;;;2.70;;
65706;SDS011;52423;43.512;5.220;2023-02-26T10:19:18;4.80;;;2.60;;
65706;SDS011;52423;43.512;5.220;2023-02-26T10:21:51;4.82;;;2.60;;
65706;SDS011;52423;43.512;5.220;2023-02-26T10:24:46;2.70;;;2.50;;
65706;SDS011;52423;43.512;5.220;2023-02-26T10:35:30;3.95;;;2.63;;
65706;SDS011;52423;43.512;5.220;2023-02-26T10:38:03;2.95;;;2.28;;
65706;SDS011;52423;43.512;5.220;2023-02-26T10:51:56;8.63;;;3.22;;
65706;SDS011;52423;43.512;5.220;2023-02-26T10:54:38;3.20;;;2.13;;
65706;SDS011;52423;43.512;5.220;2023-02-26T10:57:16;8.70;;;2.28;;
65706;SDS011;52423;43.512;5.220;2023-02-26T10:59:46;5.88;;;2.35;;
65706;SDS011;52423;43.512;5.220;2023-02-26T11:02:34;6.18;;;2.55;;
65706;SDS011;52423;43.512;5.220;2023-02-26T11:05:06;7.75;;;2.38;;
65706;SDS011;52423;43.512;5.220;2023-02-26T11:07:39;5.18;;;2.35;;
65706;SDS011;52423;43.512;5.220;2023-02-26T11:10:12;4.47;;;2.42;;
65706;SDS011;52423;43.512;5.220;2023-02-26T11:12:47;7.03;;;1.98;;
65706;SDS011;52423;43.512;5.220;2023-02-26T11:15:17;10.38;;;2.88;;
65706;SDS011;52423;43.512;5.220;2023-02-26T11:17:52;7.82;;;2.35;;
65706;SDS011;52423;43.512;5.220;2023-02-26T11:20:36;12.60;;;2.20;;
65706;SDS011;52423;43.512;5.220;2023-02-26T11:23:05;4.28;;;1.80;;
65706;SDS011;52423;43.512;5.220;2023-02-26T11:25:38;3.27;;;2.33;;
65706;SDS011;52423;43.512;5.220;2023-02-26T11:28:05;8.45;;;2.75;;
65706;SDS011;52423;43.512;5.220;2023-02-26T11:30:45;4.78;;;2.50;;
65706;SDS011;52423;43.512;5.220;2023-02-26T11:33:23;2.72;;;1.98;;
65706;SDS011;52423;43.512;5.220;2023-02-26T11:35:54;4.80;;;2.30;;
65706;SDS011;52423;43.512;5.220;2023-02-26T11:38:24;4.60;;;2.38;;
65706;SDS011;52423;43.512;5.220;2023-02-26T11:40:53;10.15;;;2.30;;
65706;SDS011;52423;43.512;5.220;2023-02-26T11:43:32;2.38;;;1.60;;
65706;SDS011;52423;43.512;5.220;2023-02-26T11:46:10;4.57;;;2.42;;
65706;SDS011;52423;43.512;5.220;2023-02-26T11:48:38;6.82;;;2.05;;
65706;SDS011;52423;43.512;5.220;2023-02-26T11:51:20;4.45;;;2.53;;
65706;SDS011;52423;43.512;5.220;2023-02-26T11:54:16;9.43;;;2.30;;
65706;SDS011;52423;43.512;5.220;2023-02-26T11:56:47;9.93;;;2.35;;
65706;SDS011;52423;43.512;5.220;2023-02-26T11:59:17;2.15;;;1.80;;
65706;SDS011;52423;43.512;5.220;2023-02-26T12:01:53;10.52;;;2.00;;
65706;SDS011;52423;43.512;5.220;2023-02-26T12:04:20;9.95;;;2.00;;
65706;SDS011;52423;43.512;5.220;2023-02-26T12:06:49;3.85;;;2.20;;
65706;SDS011;52423;43.512;5.220;2023-02-26T12:09:16;8.40;;;2.13;;
65706;SDS011;52423;43.512;5.220;2023-02-26T12:15:17;2.70;;;1.98;;
65706;SDS011;52423;43.512;5.220;2023-02-26T12:26:21;8.88;;;2.10;;
65706;SDS011;52423;43.512;5.220;2023-02-26T12:45:59;4.95;;;2.60;;
65706;SDS011;52423;43.512;5.220;2023-02-26T12:59:15;11.35;;;2.60;;
65706;SDS011;52423;43.512;5.220;2023-02-26T13:02:09;2.50;;;1.63;;
65706;SDS011;52423;43.512;5.220;2023-02-26T13:05:08;7.82;;;2.28;;
65706;SDS011;52423;43.512;5.220;2023-02-26T13:10:35;10.40;;;2.50;;
65706;SDS011;52423;43.512;5.220;2023-02-26T13:13:16;16.88;;;2.70;;
65706;SDS011;52423;43.512;5.220;2023-02-26T13:16:15;5.30;;;1.80;;
65706;SDS011;52423;43.512;5.220;2023-02-26T13:21:28;3.08;;;2.10;;
65706;SDS011;52423;43.512;5.220;2023-02-26T13:26:31;9.60;;;2.30;;
65706;SDS011;52423;43.512;5.220;2023-02-26T13:34:46;6.75;;;2.65;;
65706;SDS011;52423;43.512;5.220;2023-02-26T13:37:23;5.90;;;2.10;;
65706;SDS011;52423;43.512;5.220;2023-02-26T13:48:46;3.63;;;2.28;;
65706;SDS011;52423;43.512;5.220;2023-02-26T13:59:45;4.68;;;1.98;;
65706;SDS011;52423;43.512;5.220;2023-02-26T14:02:58;12.38;;;2.00;;
65706;SDS011;52423;43.512;5.220;2023-02-26T14:05:34;2.90;;;1.63;;
65706;SDS011;52423;43.512;5.220;2023-02-26T14:08:19;10.45;;;2.03;;
65706;SDS011;52423;43.512;5.220;2023-02-26T14:11:26;10.20;;;2.42;;
65706;SDS011;52423;43.512;5.220;2023-02-26T14:14:05;4.35;;;2.20;;
65706;SDS011;52423;43.512;5.220;2023-02-26T14:16:38;10.57;;;2.22;;
65706;SDS011;52423;43.512;5.220;2023-02-26T14:21:37;8.20;;;1.90;;
65706;SDS011;52423;43.512;5.220;2023-02-26T14:24:15;13.70;;;1.90;;
65706;SDS011;52423;43.512;5.220;2023-02-26T14:26:45;2.60;;;2.00;;
65706;SDS011;52423;43.512;5.220;2023-02-26T14:29:40;3.60;;;1.98;;
65706;SDS011;52423;43.512;5.220;2023-02-26T14:35:14;5.18;;;1.42;;
65706;SDS011;52423;43.512;5.220;2023-02-26T14:37:44;9.63;;;2.63;;
65706;SDS011;52423;43.512;5.220;2023-02-26T14:40:23;2.97;;;2.00;;
65706;SDS011;52423;43.512;5.220;2023-02-26T14:42:51;9.63;;;2.17;;
65706;SDS011;52423;43.512;5.220;2023-02-26T14:45:29;6.97;;;2.00;;
65706;SDS011;52423;43.512;5.220;2023-02-26T14:48:04;7.72;;;2.30;;
65706;SDS011;52423;43.512;5.220;2023-02-26T14:50:36;6.85;;;2.90;;
65706;SDS011;52423;43.512;5.220;2023-02-26T15:06:38;8.90;;;2.97;;
65706;SDS011;52423;43.512;5.220;2023-02-26T15:12:11;5.03;;;2.20;;
65706;SDS011;52423;43.512;5.220;2023-02-26T15:23:49;5.40;;;1.65;;
65706;SDS011;52423;43.512;5.220;2023-02-26T15:26:27;7.30;;;1.58;;
65706;SDS011;52423;43.512;5.220;2023-02-26T15:28:58;5.47;;;1.67;;
65706;SDS011;52423;43.512;5.220;2023-02-26T15:31:30;2.05;;;1.60;;
65706;SDS011;52423;43.512;5.220;2023-02-26T15:34:18;2.10;;;1.90;;
65706;SDS011;52423;43.512;5.220;2023-02-26T15:36:45;7.10;;;1.83;;
65706;SDS011;52423;43.512;5.220;2023-02-26T15:39:14;7.60;;;1.70;;
65706;SDS011;52423;43.512;5.220;2023-02-26T15:41:41;2.90;;;1.63;;
65706;SDS011;52423;43.512;5.220;2023-02-26T15:44:12;8.10;;;1.65;;
65706;SDS011;52423;43.512;5.220;2023-02-26T15:46:49;1.83;;;1.65;;
65706;SDS011;52423;43.512;5.220;2023-02-26T15:49:22;2.08;;;1.58;;
65706;SDS011;52423;43.512;5.220;2023-02-26T15:51:56;5.15;;;1.83;;
65706;SDS011;52423;43.512;5.220;2023-02-26T15:54:23;1.63;;;1.52;;
65706;SDS011;52423;43.512;5.220;2023-02-26T15:56:52;2.20;;;1.75;;
65706;SDS011;52423;43.512;5.220;2023-02-26T15:59:28;2.35;;;2.10;;
65706;SDS011;52423;43.512;5.220;2023-02-26T16:01:55;1.60;;;1.50;;
65706;SDS011;52423;43.512;5.220;2023-02-26T16:04:21;6.15;;;2.75;;
65706;SDS011;52423;43.512;5.220;2023-02-26T16:06:48;3.70;;;2.15;;
65706;SDS011;52423;43.512;5.220;2023-02-26T16:09:33;3.85;;;2.25;;
65706;SDS011;52423;43.512;5.220;2023-02-26T16:12:00;3.85;;;2.00;;
65706;SDS011;52423;43.512;5.220;2023-02-26T16:14:31;2.90;;;1.95;;
65706;SDS011;52423;43.512;5.220;2023-02-26T16:17:02;2.70;;;2.20;;
65706;SDS011;52423;43.512;5.220;2023-02-26T16:19:37;1.88;;;1.73;;
65706;SDS011;52423;43.512;5.220;2023-02-26T16:27:40;4.63;;;2.00;;
65706;SDS011;52423;43.512;5.220;2023-02-26T16:30:12;2.47;;;1.70;;
65706;SDS011;52423;43.512;5.220;2023-02-26T16:32:41;6.75;;;1.85;;
65706;SDS011;52423;43.512;5.220;2023-02-26T16:35:16;3.00;;;2.55;;
65706;SDS011;52423;43.512;5.220;2023-02-26T16:37:46;3.20;;;2.90;;
65706;SDS011;52423;43.512;5.220;2023-02-26T16:47:58;2.10;;;1.90;;
65706;SDS011;52423;43.512;5.220;2023-02-26T16:50:28;7.13;;;2.05;;
65706;SDS011;52423;43.512;5.220;2023-02-26T16:53:12;6.57;;;1.92;;
65706;SDS011;52423;43.512;5.220;2023-02-26T16:55:58;2.60;;;2.13;;
65706;SDS011;52423;43.512;5.220;2023-02-26T16:58:31;3.28;;;2.10;;
65706;SDS011;52423;43.512;5.220;2023-02-26T17:01:04;7.22;;;2.05;;
65706;SDS011;52423;43.512;5.220;2023-02-26T17:03:35;3.58;;;2.03;;
65706;SDS011;52423;43.512;5.220;2023-02-26T17:06:08;9.02;;;2.58;;
65706;SDS011;52423;43.512;5.220;2023-02-26T17:11:27;3.28;;;1.90;;
65706;SDS011;52423;43.512;5.220;2023-02-26T17:16:31;2.50;;;1.67;;
65706;SDS011;52423;43.512;5.220;2023-02-26T17:18:57;2.38;;;2.13;;
65706;SDS011;52423;43.512;5.220;2023-02-26T17:21:22;3.67;;;1.90;;
65706;SDS011;52423;43.512;5.220;2023-02-26T17:23:47;5.47;;;1.90;;
65706;SDS011;52423;43.512;5.220;2023-02-26T17:26:13;3.78;;;1.98;;
65706;SDS011;52423;43.512;5.220;2023-02-26T17:28:39;5.45;;;2.47;;
65706;SDS011;52423;43.512;5.220;2023-02-26T17:31:06;5.45;;;2.00;;
65706;SDS011;52423;43.512;5.220;2023-02-26T17:33:33;2.78;;;2.15;;
65706;SDS011;52423;43.512;5.220;2023-02-26T17:36:00;3.15;;;1.80;;
65706;SDS011;52423;43.512;5.220;2023-02-26T17:38:27;5.88;;;2.70;;
65706;SDS011;52423;43.512;5.220;2023-02-26T17:40:53;4.80;;;3.80;;
65706;SDS011;52423;43.512;5.220;2023-02-26T17:43:22;7.90;;;5.30;;
65706;SDS011;52423;43.512;5.220;2023-02-26T17:45:57;8.45;;;4.10;;
65706;SDS011;52423;43.512;5.220;2023-02-26T17:48:23;7.15;;;4.32;;
65706;SDS011;52423;43.512;5.220;2023-02-26T17:50:50;9.20;;;2.72;;
65706;SDS011;52423;43.512;5.220;2023-02-26T17:53:18;4.07;;;2.45;;
65706;SDS011;52423;43.512;5.220;2023-02-26T17:55:50;7.70;;;3.75;;
65706;SDS011;52423;43.512;5.220;2023-02-26T18:00:52;4.18;;;2.78;;
65706;SDS011;52423;43.512;5.220;2023-02-26T18:03:24;3.28;;;2.00;;
65706;SDS011;52423;43.512;5.220;2023-02-26T18:05:50;6.10;;;3.30;;
65706;SDS011;52423;43.512;5.220;2023-02-26T18:08:22;3.40;;;2.20;;
65706;SDS011;52423;43.512;5.220;2023-02-26T18:10:53;4.55;;;3.17;;
65706;SDS011;52423;43.512;5.220;2023-02-26T18:13:19;4.55;;;2.28;;
65706;SDS011;52423;43.512;5.220;2023-02-26T18:15:44;7.35;;;2.65;;
65706;SDS011;52423;43.512;5.220;2023-02-26T18:18:11;2.72;;;2.53;;
65706;SDS011;52423;43.512;5.220;2023-02-26T18:20:49;6.82;;;4.22;;
65706;SDS011;52423;43.512;5.220;2023-02-26T18:23:15;3.80;;;3.00;;
65706;SDS011;52423;43.512;5.220;2023-02-26T18:25:41;3.22;;;2.45;;
65706;SDS011;52423;43.512;5.220;2023-02-26T18:28:22;4.55;;;2.47;;
65706;SDS011;52423;43.512;5.220;2023-02-26T18:30:49;4.30;;;2.35;;